Time;durP1;ratioP1;P1;durP2;ratioP2;P2;SDS_P1;SDS_P2;PMS_P1;PMS_P2;Temp;Humidity;BMP_temperature;BMP_pressure;BME280_temperature;BME280_humidity;BME280_pressure;Samples;Min_cycle;Max_cycle;Signal;HPM_P1;HPM_P2
2021/12/20 00:01:41;;;;;;;5.78;2.30;;;;;;;;;;6143209;23;20076;-77
2021/12/20 00:04:08;;;;;;;7.85;2.50;;;;;;;;;;6144958;23;20013;-74
2021/12/20 00:06:34;;;;;;;6.20;3.08;;;;;;;;;;6144915;23;20057;-76
2021/12/20 00:09:00;;;;;;;7.13;2.47;;;;;;;;;;6147957;23;20066;-74
2021/12/20 00:11:26;;;;;;;6.32;2.63;;;;;;;;;;6147658;23;20437;-74
2021/12/20 00:13:52;;;;;;;6.60;2.72;;;;;;;;;;6144951;23;20006;-77
2021/12/20 00:16:18;;;;;;;5.65;2.90;;;;;;;;;;6148010;23;20006;-76
2021/12/20 00:18:45;;;;;;;7.05;2.70;;;;;;;;;;6147938;23;20005;-78
2021/12/20 00:21:11;;;;;;;6.55;2.53;;;;;;;;;;6147714;23;20013;-74
2021/12/20 00:23:37;;;;;;;5.60;2.50;;;;;;;;;;6121129;23;20455;-77
2021/12/20 00:26:04;;;;;;;5.15;3.00;;;;;;;;;;6121387;23;20005;-77
2021/12/20 00:28:30;;;;;;;5.80;2.33;;;;;;;;;;6144997;23;20008;-76
2021/12/20 00:30:57;;;;;;;5.75;2.55;;;;;;;;;;6146722;23;20013;-76
2021/12/20 00:33:23;;;;;;;8.23;2.60;;;;;;;;;;6147965;23;20072;-78
2021/12/20 00:35:49;;;;;;;5.85;2.53;;;;;;;;;;6148019;23;20008;-76
2021/12/20 00:41:01;;;;;;;6.78;2.60;;;;;;;;;;6145840;23;20012;-77
2021/12/20 00:43:27;;;;;;;6.40;2.53;;;;;;;;;;6146359;23;20009;-76
2021/12/20 00:45:53;;;;;;;5.72;2.38;;;;;;;;;;6147473;23;19997;-74
2021/12/20 00:48:19;;;;;;;7.03;2.53;;;;;;;;;;6147850;23;20331;-77
2021/12/20 00:50:46;;;;;;;6.45;2.30;;;;;;;;;;6145335;23;19998;-74
2021/12/20 00:53:13;;;;;;;6.88;2.33;;;;;;;;;;6147253;23;20006;-76
2021/12/20 00:55:39;;;;;;;4.95;2.28;;;;;;;;;;6147306;23;20518;-76
2021/12/20 00:58:06;;;;;;;5.10;2.30;;;;;;;;;;6121609;23;20028;-77
2021/12/20 01:00:35;;;;;;;4.03;2.13;;;;;;;;;;6118855;23;20012;-75
2021/12/20 01:03:03;;;;;;;5.65;2.35;;;;;;;;;;6120299;23;20017;-77
2021/12/20 01:05:29;;;;;;;6.55;2.17;;;;;;;;;;6147305;23;20363;-76
2021/12/20 01:07:59;;;;;;;6.65;2.42;;;;;;;;;;6146579;23;20446;-76
2021/12/20 01:10:26;;;;;;;7.00;2.45;;;;;;;;;;6122975;23;20013;-76
2021/12/20 01:12:54;;;;;;;9.35;2.60;;;;;;;;;;6148502;23;20033;-76
2021/12/20 01:15:20;;;;;;;5.45;2.60;;;;;;;;;;6149542;23;20009;-77
2021/12/20 01:17:47;;;;;;;5.05;1.90;;;;;;;;;;6147711;23;20081;-77
2021/12/20 01:20:13;;;;;;;3.72;1.98;;;;;;;;;;6148801;23;20017;-75
2021/12/20 01:22:41;;;;;;;5.15;2.33;;;;;;;;;;6149592;23;20107;-76
2021/12/20 01:25:08;;;;;;;6.40;2.03;;;;;;;;;;6149501;23;20059;-76
2021/12/20 01:27:34;;;;;;;5.53;2.10;;;;;;;;;;6149581;23;20036;-75
2021/12/20 01:30:00;;;;;;;4.53;2.00;;;;;;;;;;6149475;23;20006;-76
2021/12/20 01:32:26;;;;;;;5.22;2.17;;;;;;;;;;6147938;23;20024;-76
2021/12/20 01:34:52;;;;;;;5.80;2.40;;;;;;;;;;6148704;23;20008;-76
2021/12/20 01:37:19;;;;;;;4.00;2.08;;;;;;;;;;6149573;23;19997;-76
2021/12/20 01:39:45;;;;;;;6.22;2.13;;;;;;;;;;6149139;23;20005;-77
2021/12/20 01:42:16;;;;;;;6.40;2.60;;;;;;;;;;6149332;23;20085;-75
2021/12/20 01:44:42;;;;;;;14.33;2.60;;;;;;;;;;6147869;23;20080;-76
2021/12/20 01:47:09;;;;;;;3.67;1.90;;;;;;;;;;6148740;23;20413;-76
2021/12/20 01:49:43;;;;;;;3.97;1.55;;;;;;;;;;6149475;23;20481;-76
2021/12/20 01:52:14;;;;;;;5.30;1.73;;;;;;;;;;6148620;23;19997;-77
2021/12/20 01:54:40;;;;;;;2.85;1.92;;;;;;;;;;6147322;23;20339;-73
2021/12/20 01:57:07;;;;;;;6.53;1.90;;;;;;;;;;6149436;23;20006;-76
2021/12/20 01:59:33;;;;;;;6.07;1.95;;;;;;;;;;6149178;23;20064;-76
2021/12/20 02:01:59;;;;;;;4.18;1.73;;;;;;;;;;6148899;23;20048;-77
2021/12/20 02:04:27;;;;;;;5.80;1.48;;;;;;;;;;6148768;23;20041;-77
2021/12/20 02:06:53;;;;;;;4.28;1.73;;;;;;;;;;6149588;23;20072;-75
2021/12/20 02:09:20;;;;;;;4.90;1.80;;;;;;;;;;6146971;23;20005;-74
2021/12/20 02:11:48;;;;;;;4.05;2.00;;;;;;;;;;6149056;23;19998;-76
2021/12/20 02:14:14;;;;;;;5.07;1.52;;;;;;;;;;6147733;23;20001;-77
2021/12/20 02:16:41;;;;;;;4.57;2.00;;;;;;;;;;6149270;23;20060;-76
2021/12/20 02:19:09;;;;;;;7.65;2.03;;;;;;;;;;6147163;23;20330;-77
2021/12/20 02:21:36;;;;;;;5.03;1.88;;;;;;;;;;6123034;23;20453;-76
2021/12/20 02:24:02;;;;;;;6.80;1.85;;;;;;;;;;6148909;23;20017;-76
2021/12/20 02:26:29;;;;;;;5.55;1.75;;;;;;;;;;6148923;23;20001;-76
2021/12/20 02:28:57;;;;;;;3.90;1.55;;;;;;;;;;6146897;23;20468;-78
2021/12/20 02:39:23;;;;;;;4.45;1.60;;;;;;;;;;6148902;23;20764;-76
2021/12/20 02:41:49;;;;;;;6.80;1.98;;;;;;;;;;6147016;23;19997;-76
2021/12/20 02:44:20;;;;;;;4.28;1.70;;;;;;;;;;6147367;23;20006;-77
2021/12/20 02:49:29;;;;;;;3.95;2.08;;;;;;;;;;6156550;23;20045;-77
2021/12/20 02:51:59;;;;;;;3.92;2.13;;;;;;;;;;6122664;23;20005;-78
2021/12/20 02:54:25;;;;;;;5.93;1.55;;;;;;;;;;6148416;23;20036;-75
2021/12/20 02:56:51;;;;;;;4.72;2.00;;;;;;;;;;6147457;23;20008;-76
2021/12/20 02:59:18;;;;;;;3.00;1.80;;;;;;;;;;6148711;23;20029;-77
2021/12/20 03:01:46;;;;;;;3.38;1.50;;;;;;;;;;6148777;23;20002;-76
2021/12/20 03:04:13;;;;;;;3.17;1.60;;;;;;;;;;6148291;23;20036;-77
2021/12/20 03:06:42;;;;;;;6.25;1.90;;;;;;;;;;6148610;23;20008;-74
2021/12/20 03:09:11;;;;;;;3.10;1.70;;;;;;;;;;6148095;23;20008;-77
2021/12/20 03:11:37;;;;;;;5.63;2.20;;;;;;;;;;6147552;23;20167;-79
2021/12/20 03:14:19;;;;;;;3.85;1.70;;;;;;;;;;6147740;23;20080;-76
2021/12/20 03:16:45;;;;;;;5.25;1.80;;;;;;;;;;6144899;23;20006;-76
2021/12/20 03:19:12;;;;;;;3.80;2.00;;;;;;;;;;6144545;23;20006;-76
2021/12/20 03:21:38;;;;;;;4.70;1.80;;;;;;;;;;6140190;23;20010;-76
2021/12/20 03:24:05;;;;;;;4.22;1.98;;;;;;;;;;6141809;23;20040;-76
2021/12/20 03:26:32;;;;;;;4.00;2.20;;;;;;;;;;6142358;23;20498;-76
2021/12/20 03:28:58;;;;;;;5.07;1.88;;;;;;;;;;6141663;23;20052;-77
2021/12/20 03:31:24;;;;;;;7.88;1.73;;;;;;;;;;6141989;23;20001;-76
2021/12/20 03:33:50;;;;;;;5.82;1.75;;;;;;;;;;6142332;23;20013;-76
2021/12/20 03:36:16;;;;;;;5.35;1.70;;;;;;;;;;6138844;23;20006;-77
2021/12/20 03:38:42;;;;;;;9.35;1.80;;;;;;;;;;6142378;23;20044;-76
2021/12/20 03:41:09;;;;;;;5.13;1.80;;;;;;;;;;6142469;23;20005;-77
2021/12/20 03:43:35;;;;;;;5.05;2.10;;;;;;;;;;6139300;23;20025;-75
2021/12/20 03:46:02;;;;;;;4.63;1.80;;;;;;;;;;6141944;23;20015;-73
2021/12/20 03:48:29;;;;;;;4.82;1.77;;;;;;;;;;6142191;23;20088;-77
2021/12/20 03:50:56;;;;;;;4.07;2.05;;;;;;;;;;6141683;23;20483;-77
2021/12/20 03:53:22;;;;;;;5.88;2.42;;;;;;;;;;6141955;23;20335;-74
2021/12/20 03:55:49;;;;;;;4.10;1.75;;;;;;;;;;6115838;23;20103;-76
2021/12/20 03:58:15;;;;;;;3.42;1.80;;;;;;;;;;6140570;23;20006;-76
2021/12/20 04:00:41;;;;;;;6.07;1.80;;;;;;;;;;6141715;23;20006;-76
2021/12/20 04:03:13;;;;;;;4.30;1.92;;;;;;;;;;6139460;23;20020;-74
2021/12/20 04:05:39;;;;;;;3.58;1.58;;;;;;;;;;6139117;23;20029;-77
2021/12/20 04:08:06;;;;;;;5.25;1.73;;;;;;;;;;6139368;23;20015;-76
2021/12/20 04:10:32;;;;;;;5.10;2.05;;;;;;;;;;6137877;23;20485;-76
2021/12/20 04:12:58;;;;;;;7.30;2.10;;;;;;;;;;6138581;23;20312;-76
2021/12/20 04:15:24;;;;;;;4.93;2.10;;;;;;;;;;6138683;23;20323;-75
2021/12/20 04:17:50;;;;;;;3.55;1.60;;;;;;;;;;6138596;23;20014;-78
2021/12/20 04:20:17;;;;;;;6.78;1.80;;;;;;;;;;6139502;23;20053;-75
2021/12/20 04:22:43;;;;;;;4.43;2.13;;;;;;;;;;6139724;23;20013;-76
2021/12/20 04:25:09;;;;;;;5.10;2.17;;;;;;;;;;6137590;23;20636;-74
2021/12/20 04:27:36;;;;;;;4.05;1.70;;;;;;;;;;6113014;23;20015;-77
2021/12/20 04:30:09;;;;;;;4.38;2.00;;;;;;;;;;6138811;23;20061;-75
2021/12/20 04:32:36;;;;;;;4.03;1.60;;;;;;;;;;6138713;23;20005;-76
2021/12/20 04:35:02;;;;;;;3.63;1.80;;;;;;;;;;6137011;23;20005;-75
2021/12/20 04:37:28;;;;;;;6.15;1.65;;;;;;;;;;6137415;23;20067;-76
2021/12/20 04:39:54;;;;;;;5.50;2.03;;;;;;;;;;6138965;23;19997;-75
2021/12/20 04:42:20;;;;;;;4.32;1.63;;;;;;;;;;6136981;23;20009;-77
2021/12/20 04:44:47;;;;;;;3.90;2.28;;;;;;;;;;6137455;23;20001;-76
2021/12/20 04:47:13;;;;;;;4.90;1.75;;;;;;;;;;6139559;23;20128;-76
2021/12/20 04:49:39;;;;;;;8.18;2.13;;;;;;;;;;6139395;23;20029;-75
2021/12/20 04:52:06;;;;;;;7.35;2.22;;;;;;;;;;6138500;23;20005;-74
2021/12/20 04:54:32;;;;;;;3.10;1.48;;;;;;;;;;6137412;23;20394;-74
2021/12/20 04:56:58;;;;;;;4.82;1.60;;;;;;;;;;6138387;23;20598;-74
2021/12/20 04:59:24;;;;;;;3.20;1.73;;;;;;;;;;6138647;23;20009;-75
2021/12/20 05:01:50;;;;;;;4.35;1.67;;;;;;;;;;6138958;23;20059;-76
2021/12/20 05:04:16;;;;;;;4.65;1.90;;;;;;;;;;6136357;23;20640;-74
2021/12/20 05:06:43;;;;;;;2.78;1.70;;;;;;;;;;6138876;23;20005;-75
2021/12/20 05:09:09;;;;;;;6.35;1.70;;;;;;;;;;6138565;23;20009;-75
2021/12/20 05:11:35;;;;;;;4.95;1.90;;;;;;;;;;6138968;23;20009;-75
2021/12/20 05:14:02;;;;;;;4.47;1.80;;;;;;;;;;6138759;23;20009;-75
2021/12/20 05:16:28;;;;;;;4.70;1.70;;;;;;;;;;6139481;23;20021;-75
2021/12/20 05:18:54;;;;;;;5.10;1.80;;;;;;;;;;6139385;23;20009;-76
2021/12/20 05:21:20;;;;;;;3.22;1.83;;;;;;;;;;6141404;23;20017;-75
2021/12/20 05:23:47;;;;;;;3.17;1.70;;;;;;;;;;6141978;23;20017;-77
2021/12/20 05:26:13;;;;;;;4.22;2.05;;;;;;;;;;6141821;23;20093;-75
2021/12/20 05:28:39;;;;;;;3.40;1.77;;;;;;;;;;6141215;23;20080;-74
2021/12/20 05:31:05;;;;;;;4.03;1.90;;;;;;;;;;6141153;23;20085;-75
2021/12/20 05:33:31;;;;;;;5.47;1.85;;;;;;;;;;6139917;23;20069;-75
2021/12/20 05:35:57;;;;;;;3.67;1.70;;;;;;;;;;6141200;23;20005;-76
2021/12/20 05:38:23;;;;;;;5.47;1.90;;;;;;;;;;6140897;23;20006;-75
2021/12/20 05:40:50;;;;;;;3.38;1.50;;;;;;;;;;6141127;23;20086;-75
2021/12/20 05:43:16;;;;;;;3.42;1.80;;;;;;;;;;6140708;23;20017;-74
2021/12/20 05:45:42;;;;;;;3.67;1.75;;;;;;;;;;6139475;23;20808;-76
2021/12/20 05:48:08;;;;;;;4.60;1.95;;;;;;;;;;6140883;23;20001;-77
2021/12/20 05:50:34;;;;;;;5.07;1.60;;;;;;;;;;6141396;23;20012;-76
2021/12/20 05:53:01;;;;;;;5.68;1.90;;;;;;;;;;6141221;23;20084;-75
2021/12/20 05:55:27;;;;;;;4.75;1.75;;;;;;;;;;6143115;23;20351;-74
2021/12/20 05:57:53;;;;;;;4.25;1.98;;;;;;;;;;6141402;23;20010;-74
2021/12/20 06:00:20;;;;;;;6.80;1.88;;;;;;;;;;6142983;23;20009;-74
2021/12/20 06:02:48;;;;;;;3.53;1.70;;;;;;;;;;6142645;23;20014;-75
2021/12/20 06:05:14;;;;;;;4.15;1.70;;;;;;;;;;6142964;23;20009;-74
2021/12/20 06:07:42;;;;;;;3.90;1.55;;;;;;;;;;6141175;23;20013;-75
2021/12/20 06:10:10;;;;;;;2.20;1.33;;;;;;;;;;6142462;23;20063;-77
2021/12/20 06:12:36;;;;;;;5.60;1.65;;;;;;;;;;6143049;23;20008;-77
2021/12/20 06:15:06;;;;;;;4.63;1.98;;;;;;;;;;6117418;23;20009;-74
2021/12/20 06:17:32;;;;;;;6.15;1.92;;;;;;;;;;6141362;23;19997;-75
2021/12/20 06:19:58;;;;;;;3.55;1.67;;;;;;;;;;6143054;23;20025;-76
2021/12/20 06:22:24;;;;;;;3.50;2.05;;;;;;;;;;6142878;23;20013;-74
2021/12/20 06:24:50;;;;;;;3.50;1.90;;;;;;;;;;6143434;23;20014;-74
2021/12/20 06:27:17;;;;;;;5.07;2.03;;;;;;;;;;6116665;23;20014;-77
2021/12/20 06:29:43;;;;;;;5.05;2.13;;;;;;;;;;6141205;23;20079;-74
2021/12/20 06:32:09;;;;;;;2.97;1.63;;;;;;;;;;6140244;23;20485;-75
2021/12/20 06:34:35;;;;;;;3.30;1.80;;;;;;;;;;6139777;23;20060;-72
2021/12/20 06:37:02;;;;;;;3.53;1.80;;;;;;;;;;6114047;23;20387;-79
2021/12/20 06:39:30;;;;;;;4.07;1.95;;;;;;;;;;6138604;23;20012;-78
2021/12/20 06:41:57;;;;;;;3.78;1.80;;;;;;;;;;6140038;23;20852;-77
2021/12/20 06:44:23;;;;;;;4.68;1.50;;;;;;;;;;6140078;23;20020;-77
2021/12/20 06:46:50;;;;;;;3.25;1.75;;;;;;;;;;6139898;23;20430;-80
2021/12/20 06:49:16;;;;;;;5.97;1.85;;;;;;;;;;6140050;23;20005;-75
2021/12/20 06:51:43;;;;;;;3.45;1.60;;;;;;;;;;6137923;23;20009;-76
2021/12/20 06:54:10;;;;;;;3.38;1.85;;;;;;;;;;6138671;23;20010;-80
2021/12/20 06:56:36;;;;;;;4.07;2.42;;;;;;;;;;6139915;23;20322;-79
2021/12/20 06:59:03;;;;;;;4.80;2.65;;;;;;;;;;6138487;23;20077;-75
2021/12/20 07:01:29;;;;;;;6.45;2.28;;;;;;;;;;6140244;23;19997;-78
2021/12/20 07:03:55;;;;;;;4.82;2.78;;;;;;;;;;6137953;23;20005;-79
2021/12/20 07:06:22;;;;;;;4.93;2.15;;;;;;;;;;6140326;23;19998;-75
2021/12/20 07:08:48;;;;;;;4.47;2.00;;;;;;;;;;6139192;23;20513;-78
2021/12/20 07:11:14;;;;;;;6.63;2.95;;;;;;;;;;6139592;23;20001;-74
2021/12/20 07:13:40;;;;;;;7.07;3.80;;;;;;;;;;6139531;23;20072;-74
2021/12/20 07:16:07;;;;;;;11.00;4.15;;;;;;;;;;6139712;23;20024;-75
2021/12/20 07:18:36;;;;;;;7.82;3.90;;;;;;;;;;6137808;23;20005;-78
2021/12/20 07:21:03;;;;;;;9.32;4.00;;;;;;;;;;6139360;23;20014;-79
2021/12/20 07:23:29;;;;;;;8.38;3.50;;;;;;;;;;6139812;23;20017;-74
2021/12/20 07:25:55;;;;;;;7.85;3.45;;;;;;;;;;6139957;23;20380;-74
2021/12/20 07:28:21;;;;;;;9.32;3.80;;;;;;;;;;6138006;23;20342;-76
2021/12/20 07:30:48;;;;;;;14.25;4.00;;;;;;;;;;6139246;23;20004;-77
2021/12/20 07:33:15;;;;;;;6.97;3.72;;;;;;;;;;6139147;23;20064;-78
2021/12/20 07:35:42;;;;;;;10.57;5.05;;;;;;;;;;6139825;23;20014;-74
2021/12/20 07:38:12;;;;;;;11.30;4.47;;;;;;;;;;6139261;23;19997;-76
2021/12/20 07:40:38;;;;;;;9.20;4.78;;;;;;;;;;6137668;23;19998;-75
2021/12/20 07:43:04;;;;;;;12.27;4.63;;;;;;;;;;6138885;23;20010;-74
2021/12/20 07:45:30;;;;;;;11.35;4.70;;;;;;;;;;6139426;23;20005;-75
2021/12/20 07:47:56;;;;;;;11.65;7.20;;;;;;;;;;6139513;23;20013;-78
2021/12/20 07:50:22;;;;;;;15.18;5.32;;;;;;;;;;6137497;23;20570;-76
2021/12/20 07:52:49;;;;;;;8.68;5.18;;;;;;;;;;6136518;23;20037;-78
2021/12/20 07:55:16;;;;;;;14.40;5.65;;;;;;;;;;6139233;23;20001;-76
2021/12/20 07:57:42;;;;;;;11.48;5.05;;;;;;;;;;6113541;23;20016;-79
2021/12/20 08:00:10;;;;;;;6.22;3.55;;;;;;;;;;6138857;23;19998;-75
2021/12/20 08:02:36;;;;;;;6.68;3.22;;;;;;;;;;6138828;23;20006;-78
2021/12/20 08:05:03;;;;;;;7.03;4.20;;;;;;;;;;6137711;23;20088;-75
2021/12/20 08:07:29;;;;;;;8.40;4.53;;;;;;;;;;6139341;23;20022;-78
2021/12/20 08:09:55;;;;;;;7.47;3.80;;;;;;;;;;6138856;23;20016;-75
2021/12/20 08:12:21;;;;;;;9.43;3.85;;;;;;;;;;6139137;23;20005;-75
2021/12/20 08:14:48;;;;;;;6.10;3.80;;;;;;;;;;6138602;23;20129;-78
2021/12/20 08:17:14;;;;;;;11.88;4.72;;;;;;;;;;6139242;23;20083;-75
2021/12/20 08:19:40;;;;;;;9.38;4.25;;;;;;;;;;6142109;23;20011;-73
2021/12/20 08:22:06;;;;;;;7.32;4.78;;;;;;;;;;6142308;23;19997;-77
2021/12/20 08:24:33;;;;;;;13.48;5.45;;;;;;;;;;6141793;23;20021;-75
2021/12/20 08:26:59;;;;;;;10.50;5.43;;;;;;;;;;6142194;23;19998;-76
2021/12/20 08:29:26;;;;;;;9.55;5.40;;;;;;;;;;6141781;23;20056;-75
2021/12/20 08:31:52;;;;;;;12.13;6.30;;;;;;;;;;6140047;23;20005;-78
2021/12/20 08:34:18;;;;;;;19.38;6.30;;;;;;;;;;6141325;23;20326;-74
2021/12/20 08:36:45;;;;;;;8.57;5.28;;;;;;;;;;6141941;23;20007;-80
2021/12/20 08:39:17;;;;;;;8.98;5.25;;;;;;;;;;6142039;23;20063;-75
2021/12/20 08:41:43;;;;;;;7.72;4.60;;;;;;;;;;6141740;23;20060;-75
2021/12/20 08:44:10;;;;;;;12.90;5.72;;;;;;;;;;6115861;23;20020;-79
2021/12/20 08:46:36;;;;;;;8.70;5.05;;;;;;;;;;6138441;23;20002;-77
2021/12/20 08:49:02;;;;;;;11.75;5.55;;;;;;;;;;6142544;23;20056;-75
2021/12/20 08:51:28;;;;;;;8.95;5.30;;;;;;;;;;6142205;23;20002;-79
2021/12/20 08:53:54;;;;;;;10.38;6.32;;;;;;;;;;6115434;23;20002;-78
2021/12/20 08:56:21;;;;;;;13.10;8.82;;;;;;;;;;6140296;23;20457;-75
2021/12/20 08:58:47;;;;;;;12.70;7.50;;;;;;;;;;6140091;23;20006;-77
2021/12/20 09:01:14;;;;;;;11.02;7.93;;;;;;;;;;6140590;23;20064;-75
2021/12/20 09:03:40;;;;;;;8.07;5.90;;;;;;;;;;6138918;23;20501;-76
2021/12/20 09:06:08;;;;;;;9.07;5.03;;;;;;;;;;6140253;23;20474;-76
2021/12/20 09:08:34;;;;;;;5.10;3.88;;;;;;;;;;6138032;23;20013;-77
2021/12/20 09:11:01;;;;;;;7.13;3.45;;;;;;;;;;6139964;23;20467;-78
2021/12/20 09:13:27;;;;;;;5.47;4.00;;;;;;;;;;6141066;23;20075;-76
2021/12/20 09:15:55;;;;;;;7.53;3.80;;;;;;;;;;6141453;23;20031;-74
2021/12/20 09:18:21;;;;;;;10.68;3.92;;;;;;;;;;6142120;23;20013;-75
2021/12/20 09:20:47;;;;;;;4.78;3.25;;;;;;;;;;6142189;23;20010;-76
2021/12/20 09:23:14;;;;;;;4.63;3.10;;;;;;;;;;6139913;23;20087;-78
2021/12/20 09:25:43;;;;;;;5.47;3.13;;;;;;;;;;6142174;23;20005;-78
2021/12/20 09:28:10;;;;;;;6.03;3.28;;;;;;;;;;6141581;23;20651;-76
2021/12/20 09:30:37;;;;;;;5.40;2.88;;;;;;;;;;6143872;23;20423;-75
2021/12/20 09:33:04;;;;;;;4.85;2.50;;;;;;;;;;6143293;23;20010;-74
2021/12/20 09:35:30;;;;;;;3.97;2.10;;;;;;;;;;6141130;23;20706;-77
2021/12/20 09:37:57;;;;;;;4.75;2.50;;;;;;;;;;6143376;23;20001;-75
2021/12/20 09:40:33;;;;;;;6.75;3.50;;;;;;;;;;6142896;23;20004;-74
2021/12/20 09:43:05;;;;;;;6.13;2.88;;;;;;;;;;6142873;23;20454;-74
2021/12/20 09:45:32;;;;;;;6.07;3.03;;;;;;;;;;6143690;23;20009;-75
2021/12/20 09:47:58;;;;;;;3.28;2.22;;;;;;;;;;6141843;23;20463;-77
2021/12/20 09:50:25;;;;;;;7.57;2.72;;;;;;;;;;6143318;23;20076;-78
2021/12/20 09:52:51;;;;;;;6.28;3.53;;;;;;;;;;6144149;23;20263;-77
2021/12/20 09:55:17;;;;;;;5.43;2.40;;;;;;;;;;6142036;23;20013;-79
2021/12/20 09:57:45;;;;;;;3.72;2.38;;;;;;;;;;6143795;23;20060;-74
2021/12/20 10:00:12;;;;;;;4.50;2.20;;;;;;;;;;6143902;23;20016;-78
2021/12/20 10:02:38;;;;;;;3.55;2.08;;;;;;;;;;6143746;23;19997;-75
2021/12/20 10:05:04;;;;;;;6.20;2.47;;;;;;;;;;6143723;23;20002;-75
2021/12/20 10:07:32;;;;;;;5.57;2.70;;;;;;;;;;6141872;23;20610;-75
2021/12/20 10:10:00;;;;;;;5.45;2.67;;;;;;;;;;6143548;23;20005;-77
2021/12/20 10:12:27;;;;;;;4.20;2.85;;;;;;;;;;6143592;23;20001;-76
2021/12/20 10:14:57;;;;;;;5.43;2.90;;;;;;;;;;6143893;23;20084;-75
2021/12/20 10:17:26;;;;;;;6.35;3.42;;;;;;;;;;6139282;23;20008;-77
2021/12/20 10:19:53;;;;;;;6.20;2.72;;;;;;;;;;6139524;23;20574;-76
2021/12/20 10:22:22;;;;;;;5.10;2.58;;;;;;;;;;6142386;23;20056;-75
2021/12/20 10:24:48;;;;;;;4.43;2.85;;;;;;;;;;6143210;23;20013;-75
2021/12/20 10:27:31;;;;;;;4.28;2.53;;;;;;;;;;6143008;23;20443;-75
2021/12/20 10:29:58;;;;;;;5.13;2.42;;;;;;;;;;6140059;23;20009;-77
2021/12/20 10:32:44;;;;;;;6.28;2.50;;;;;;;;;;6139594;23;20001;-77
2021/12/20 10:35:26;;;;;;;3.95;2.03;;;;;;;;;;6142306;23;20011;-75
2021/12/20 10:37:58;;;;;;;6.60;2.22;;;;;;;;;;6115006;23;20092;-75
2021/12/20 10:40:24;;;;;;;;;;;;;;;;;;6141644;23;20041;-75
2021/12/20 10:42:52;;;;;;;4.32;1.95;;;;;;;;;;6141996;23;19912;-75
2021/12/20 10:45:20;;;;;;;2.95;1.70;;;;;;;;;;6142256;23;20028;-76
2021/12/20 10:47:47;;;;;;;2.92;2.13;;;;;;;;;;6140800;23;20081;-78
2021/12/20 10:50:27;;;;;;;4.18;1.83;;;;;;;;;;6141958;23;20056;-76
2021/12/20 10:52:54;;;;;;;3.55;2.00;;;;;;;;;;6115704;23;20012;-80
2021/12/20 10:55:39;;;;;;;2.97;2.22;;;;;;;;;;6141106;23;20429;-80
2021/12/20 10:58:19;;;;;;;4.60;2.40;;;;;;;;;;6142703;23;20013;-75
2021/12/20 11:00:45;;;;;;;3.05;2.10;;;;;;;;;;6141439;23;20090;-79
2021/12/20 11:03:25;;;;;;;4.38;2.33;;;;;;;;;;6142624;23;20096;-76
2021/12/20 11:06:24;;;;;;;3.28;2.38;;;;;;;;;;6140820;23;20001;-76
2021/12/20 11:11:23;;;;;;;4.28;2.67;;;;;;;;;;6137462;23;20149;-80
2021/12/20 11:13:49;;;;;;;3.65;2.03;;;;;;;;;;6140536;23;20048;-78
2021/12/20 11:16:32;;;;;;;4.85;2.40;;;;;;;;;;6141311;23;20480;-76
2021/12/20 11:19:07;;;;;;;3.60;2.47;;;;;;;;;;6141002;23;20208;-77
2021/12/20 11:21:38;;;;;;;4.95;2.75;;;;;;;;;;6141204;23;20088;-75
2021/12/20 11:24:11;;;;;;;3.70;3.00;;;;;;;;;;6139903;23;20017;-79
2021/12/20 11:26:38;;;;;;;4.13;2.80;;;;;;;;;;6141495;23;20009;-78
2021/12/20 11:29:04;;;;;;;4.05;2.75;;;;;;;;;;6114689;23;20041;-79
2021/12/20 11:31:32;;;;;;;4.57;3.15;;;;;;;;;;6140626;23;19998;-79
2021/12/20 11:34:00;;;;;;;4.85;2.58;;;;;;;;;;6141043;23;20008;-73
2021/12/20 11:36:26;;;;;;;8.40;2.42;;;;;;;;;;6141478;23;20080;-77
2021/12/20 11:38:53;;;;;;;4.78;2.50;;;;;;;;;;6138738;23;20100;-76
2021/12/20 11:41:19;;;;;;;3.55;2.17;;;;;;;;;;6139862;23;20189;-76
2021/12/20 11:43:48;;;;;;;5.07;2.80;;;;;;;;;;6141157;23;20089;-76
2021/12/20 11:46:26;;;;;;;4.53;2.42;;;;;;;;;;6115611;23;20009;-78
2021/12/20 11:48:53;;;;;;;5.72;2.28;;;;;;;;;;6113960;23;20012;-80
2021/12/20 11:51:20;;;;;;;5.85;2.60;;;;;;;;;;6139948;23;20009;-78
2021/12/20 11:54:31;;;;;;;4.55;2.47;;;;;;;;;;6141052;23;20446;-81
2021/12/20 11:57:13;;;;;;;7.63;2.38;;;;;;;;;;6139482;23;20092;-79
2021/12/20 11:59:47;;;;;;;4.45;2.15;;;;;;;;;;6137049;23;20006;-77
2021/12/20 12:02:20;;;;;;;3.83;2.40;;;;;;;;;;6141017;23;20029;-80
2021/12/20 12:04:57;;;;;;;4.50;2.10;;;;;;;;;;6141481;23;20005;-79
2021/12/20 12:07:24;;;;;;;4.53;1.90;;;;;;;;;;6140597;23;20525;-74
2021/12/20 12:10:00;;;;;;;3.03;2.03;;;;;;;;;;6141037;23;20076;-74
2021/12/20 12:12:27;;;;;;;5.55;2.25;;;;;;;;;;6141320;23;20375;-74
2021/12/20 12:15:07;;;;;;;5.07;2.28;;;;;;;;;;6141172;23;20004;-73
2021/12/20 12:17:50;;;;;;;4.28;2.50;;;;;;;;;;6139713;23;20036;-74
2021/12/20 12:20:35;;;;;;;5.15;2.13;;;;;;;;;;6141319;23;20091;-79
2021/12/20 12:23:13;;;;;;;3.83;2.15;;;;;;;;;;6141048;23;20062;-79
2021/12/20 12:25:49;;;;;;;4.43;2.40;;;;;;;;;;6113108;23;20092;-73
2021/12/20 12:28:17;;;;;;;2.63;2.10;;;;;;;;;;6140879;23;20438;-75
2021/12/20 12:30:44;;;;;;;3.40;2.05;;;;;;;;;;6140713;23;20612;-81
2021/12/20 12:33:13;;;;;;;2.63;1.90;;;;;;;;;;6141420;23;20651;-76
2021/12/20 12:35:39;;;;;;;3.53;2.10;;;;;;;;;;6139453;23;20007;-74
2021/12/20 12:38:14;;;;;;;3.70;2.58;;;;;;;;;;6139621;23;20009;-75
2021/12/20 12:40:40;;;;;;;4.68;2.28;;;;;;;;;;6141514;23;20471;-80
2021/12/20 12:43:07;;;;;;;3.65;2.30;;;;;;;;;;6140107;23;20035;-73
2021/12/20 12:45:51;;;;;;;5.18;2.55;;;;;;;;;;6140991;23;20084;-74
2021/12/20 12:48:33;;;;;;;3.72;2.08;;;;;;;;;;6137257;23;20625;-73
2021/12/20 12:51:18;;;;;;;4.15;2.50;;;;;;;;;;6141394;23;20009;-74
2021/12/20 12:53:46;;;;;;;5.20;2.80;;;;;;;;;;6141425;23;20017;-74
2021/12/20 12:56:25;;;;;;;3.90;3.00;;;;;;;;;;6139803;23;20418;-75
2021/12/20 12:59:11;;;;;;;4.30;2.60;;;;;;;;;;6141689;23;20002;-74
2021/12/20 13:01:58;;;;;;;3.80;2.10;;;;;;;;;;6121605;23;20006;-74
2021/12/20 13:04:42;;;;;;;2.83;2.08;;;;;;;;;;6142676;23;20044;-75
2021/12/20 13:07:09;;;;;;;3.45;2.15;;;;;;;;;;6146580;23;20025;-75
2021/12/20 13:09:44;;;;;;;5.70;2.47;;;;;;;;;;6142538;23;20006;-74
2021/12/20 13:12:17;;;;;;;4.13;2.45;;;;;;;;;;6144494;23;20002;-73
2021/12/20 13:14:51;;;;;;;2.53;2.03;;;;;;;;;;6144730;23;20066;-73
2021/12/20 13:17:38;;;;;;;3.70;2.10;;;;;;;;;;6117127;23;20020;-74
2021/12/20 13:20:19;;;;;;;3.53;1.98;;;;;;;;;;6142048;23;20009;-73
2021/12/20 13:23:04;;;;;;;3.60;2.30;;;;;;;;;;6143330;23;20005;-74
2021/12/20 13:25:35;;;;;;;3.58;1.90;;;;;;;;;;6143546;23;20002;-74
2021/12/20 13:28:02;;;;;;;3.58;1.95;;;;;;;;;;6143629;23;20001;-74
2021/12/20 13:30:32;;;;;;;3.78;2.15;;;;;;;;;;6143227;23;20010;-74
2021/12/20 13:32:59;;;;;;;3.22;2.10;;;;;;;;;;6143248;23;20005;-74
2021/12/20 13:35:26;;;;;;;3.20;1.92;;;;;;;;;;6142036;23;20505;-74
2021/12/20 13:37:52;;;;;;;3.88;2.25;;;;;;;;;;6143357;23;20105;-75
2021/12/20 13:40:18;;;;;;;6.13;2.47;;;;;;;;;;6143477;23;20025;-75
2021/12/20 13:42:49;;;;;;;5.60;2.13;;;;;;;;;;6142819;23;21993;-74
2021/12/20 13:45:15;;;;;;;3.55;2.05;;;;;;;;;;6142596;23;20038;-75
2021/12/20 13:47:42;;;;;;;2.75;1.80;;;;;;;;;;6146230;23;20057;-77
2021/12/20 13:50:16;;;;;;;2.67;1.90;;;;;;;;;;6145565;23;20008;-74
2021/12/20 13:52:46;;;;;;;3.95;2.13;;;;;;;;;;6115995;23;20013;-77
2021/12/20 13:55:12;;;;;;;3.00;2.05;;;;;;;;;;6147370;23;20009;-74
2021/12/20 13:57:38;;;;;;;3.00;2.00;;;;;;;;;;6142519;23;20009;-75
2021/12/20 14:00:15;;;;;;;2.75;1.75;;;;;;;;;;6116602;23;20006;-75
2021/12/20 14:02:42;;;;;;;4.60;2.28;;;;;;;;;;6141089;23;20010;-74
2021/12/20 14:05:13;;;;;;;3.95;2.05;;;;;;;;;;6142313;23;20025;-75
2021/12/20 14:07:43;;;;;;;3.60;1.92;;;;;;;;;;6142711;23;20036;-73
2021/12/20 14:10:21;;;;;;;3.92;2.33;;;;;;;;;;6142327;23;20006;-73
2021/12/20 14:12:47;;;;;;;2.45;1.80;;;;;;;;;;6142171;23;20072;-75
2021/12/20 14:15:18;;;;;;;3.65;1.85;;;;;;;;;;6140727;23;20607;-77
2021/12/20 14:17:50;;;;;;;3.22;1.63;;;;;;;;;;6139496;23;20012;-76
2021/12/20 14:20:17;;;;;;;3.17;1.83;;;;;;;;;;6139516;23;20018;-74
2021/12/20 14:22:50;;;;;;;3.35;2.05;;;;;;;;;;6139499;23;20371;-74
2021/12/20 14:25:16;;;;;;;4.88;2.38;;;;;;;;;;6138658;23;20523;-75
2021/12/20 14:27:42;;;;;;;3.15;1.95;;;;;;;;;;6138802;23;20002;-74
2021/12/20 14:30:22;;;;;;;5.82;2.22;;;;;;;;;;6139492;23;20335;-74
2021/12/20 14:32:48;;;;;;;4.88;2.13;;;;;;;;;;6139364;23;20255;-76
2021/12/20 14:35:35;;;;;;;3.50;2.15;;;;;;;;;;6139267;23;20481;-73
2021/12/20 14:38:04;;;;;;;5.97;2.00;;;;;;;;;;6137385;23;20467;-73
2021/12/20 14:40:42;;;;;;;4.53;2.00;;;;;;;;;;6139044;23;20295;-75
2021/12/20 14:43:12;;;;;;;2.47;1.75;;;;;;;;;;6139275;23;20316;-74
2021/12/20 14:45:39;;;;;;;4.20;2.20;;;;;;;;;;6139892;23;20009;-73
2021/12/20 14:48:33;;;;;;;3.30;1.95;;;;;;;;;;6137138;23;20079;-75
2021/12/20 14:50:59;;;;;;;2.70;1.80;;;;;;;;;;6138925;23;20002;-74
2021/12/20 14:53:27;;;;;;;7.40;2.42;;;;;;;;;;6138278;23;20008;-75
2021/12/20 14:56:06;;;;;;;3.38;2.00;;;;;;;;;;6138983;23;20149;-74
2021/12/20 14:58:33;;;;;;;3.85;2.20;;;;;;;;;;6137648;23;20756;-74
2021/12/20 15:01:00;;;;;;;4.35;2.35;;;;;;;;;;6139710;23;20024;-75
2021/12/20 15:03:27;;;;;;;2.60;2.08;;;;;;;;;;6138916;23;20013;-74
2021/12/20 15:06:03;;;;;;;5.38;2.38;;;;;;;;;;6139317;23;20462;-76
2021/12/20 15:08:29;;;;;;;5.18;2.47;;;;;;;;;;6137216;23;20363;-79